ZPPP/KMG METAR and TAF weather

Enter ICAO airport designator
Station Type Date Time Source
ZPPP METAR 2019/02/16 17:00 UTC NOAA

ZPPP 161700Z 21004MPS CAVOK 11/02 Q1019 NOSIG


Station Type Date Time Source
ZPPP Decoded METAR 2019/02/16 17:00 UTC NOAA

Kunming, China (ZPPP) 25-01N 102-41E 1892M
Feb 16, 2019 - 12:00 PM EST / 2019.02.16 1700 UTC
Wind: from the SSW (210 degrees) at 9 MPH (8 KT):0
Visibility: greater than 7 mile(s):0
Temperature: 51 F (11 C)
Dew Point: 35 F (2 C)
Relative Humidity: 53%
Pressure (altimeter): 30.09 in. Hg (1019 hPa)
ob: ZPPP 161700Z 21004MPS CAVOK 11/02 Q1019 NOSIG
cycle: 17

Station Type Date Time Source
ZPPP TAF 2019/02/16 18:03 UTC NOAA

TAF ZPPP 161313Z 1618/1718 22007MPS 9999 SCT026 TX20/1708Z TN07/1623Z


Example: see airport list